createdAt,value
2023-02-04T00:01:37.028Z,91182.49
2023-02-04T00:09:59.966Z,91179.10
2023-02-04T00:18:22.896Z,91179.51
2023-02-04T00:26:45.847Z,91164.56
2023-02-04T00:35:09.512Z,91155.88
2023-02-04T00:43:32.610Z,91144.88
2023-02-04T00:51:55.645Z,91129.48
2023-02-04T01:00:18.781Z,91108.52
2023-02-04T01:08:41.784Z,91089.55
2023-02-04T01:17:04.741Z,91066.62
2023-02-04T01:25:27.757Z,91044.31
2023-02-04T01:33:52.295Z,91021.44
2023-02-04T01:42:15.296Z,91000.73
2023-02-04T01:50:38.652Z,90989.65
2023-02-04T01:59:01.563Z,90997.95
2023-02-04T02:07:24.589Z,91008.80
2023-02-04T02:15:48.343Z,91022.42
2023-02-04T02:24:31.759Z,91031.15
2023-02-04T02:32:56.125Z,91038.73
2023-02-04T02:41:19.168Z,91045.14
2023-02-04T02:49:43.081Z,91041.21
2023-02-04T02:58:15.696Z,91033.02
2023-02-04T03:06:40.996Z,91036.25
2023-02-04T03:15:05.007Z,91033.21
2023-02-04T03:23:28.165Z,91033.11
2023-02-04T03:31:55.505Z,91034.13
2023-02-04T03:40:20.113Z,91018.41
2023-02-04T03:48:43.186Z,91015.55
2023-02-04T03:57:06.249Z,91011.02
2023-02-04T04:05:29.302Z,90994.40
2023-02-04T04:13:52.258Z,90985.83
2023-02-04T04:22:15.741Z,90996.23
2023-02-04T04:30:39.028Z,91000.70
2023-02-04T04:39:02.016Z,91010.55
2023-02-04T04:47:25.184Z,91003.02
2023-02-04T04:55:48.065Z,91001.98
2023-02-04T05:04:10.976Z,90979.08
2023-02-04T05:12:33.882Z,90958.95
2023-02-04T05:20:56.792Z,90916.08
2023-02-04T05:29:19.687Z,90882.39
2023-02-04T05:37:42.563Z,90853.61
2023-02-04T05:46:07.380Z,90858.92
2023-02-04T05:54:32.915Z,90881.05
2023-02-04T06:02:56.552Z,90902.80
2023-02-04T06:11:19.456Z,90936.44
2023-02-04T06:19:42.427Z,90957.64
2023-02-04T06:28:05.401Z,90982.33
2023-02-04T06:36:28.305Z,90996.48
2023-02-04T06:44:52.522Z,91022.69
2023-02-04T06:53:15.518Z,91049.23
2023-02-04T07:01:38.587Z,91085.79
2023-02-04T07:10:01.909Z,91120.50
2023-02-04T07:18:24.968Z,91169.11
2023-02-04T07:26:47.952Z,91184.64
2023-02-04T07:35:12.708Z,91205.19
2023-02-04T07:43:36.142Z,91240.45
2023-02-04T07:51:59.064Z,91280.77
2023-02-04T08:00:22.126Z,91339.85
2023-02-04T08:08:45.022Z,91333.47
2023-02-04T08:17:07.985Z,91302.67
2023-02-04T08:25:31.300Z,91304.67
2023-02-04T08:33:54.174Z,91592.96
2023-02-04T08:42:17.169Z,91945.45
2023-02-04T08:50:40.089Z,91902.31
2023-02-04T08:59:02.985Z,91762.11
2023-02-04T09:07:25.944Z,91698.35
2023-02-04T09:15:48.917Z,91658.87
2023-02-04T09:24:11.827Z,91611.61
2023-02-04T09:32:34.761Z,91586.42
2023-02-04T09:41:01.843Z,91543.00
2023-02-04T09:49:26.542Z,91474.35
2023-02-04T09:57:49.458Z,91478.49
2023-02-04T10:06:14.803Z,91441.23
2023-02-04T10:14:37.770Z,91420.06
2023-02-04T10:23:00.876Z,91399.48
2023-02-04T10:31:39.078Z,91378.92
2023-02-04T10:40:02.182Z,91357.98
2023-02-04T10:48:25.759Z,91354.27
2023-02-04T10:56:48.724Z,91383.77
2023-02-04T11:05:17.612Z,91465.91
2023-02-04T11:13:43.802Z,91556.86
2023-02-04T11:22:41.039Z,91567.83
2023-02-04T11:31:33.602Z,91475.48
2023-02-04T11:40:00.196Z,91385.34
2023-02-04T11:48:23.120Z,91277.65
2023-02-04T11:56:47.022Z,91192.75
2023-02-04T12:05:16.077Z,91095.94
2023-02-04T12:13:52.929Z,91027.02
2023-02-04T12:22:15.988Z,90992.14
2023-02-04T12:30:39.016Z,90975.25
2023-02-04T12:39:03.167Z,90968.63
2023-02-04T12:47:26.127Z,90957.17
2023-02-04T12:55:49.227Z,90897.90
2023-02-04T13:04:12.148Z,90889.48
2023-02-04T13:12:35.152Z,90920.33
2023-02-04T13:20:58.201Z,90981.49
2023-02-04T13:29:22.310Z,91028.55
2023-02-04T13:37:45.573Z,91045.29
2023-02-04T13:46:08.648Z,91036.63
2023-02-04T13:54:31.809Z,90984.48
2023-02-04T14:02:56.456Z,90948.87
2023-02-04T14:11:19.446Z,90939.74
2023-02-04T14:19:42.457Z,90896.88
2023-02-04T14:28:06.318Z,90887.99
2023-02-04T14:36:29.290Z,90866.55
2023-02-04T14:44:52.189Z,90847.16
2023-02-04T14:53:15.229Z,90840.05
2023-02-04T15:01:38.164Z,90813.52
2023-02-04T15:10:01.164Z,90784.52
2023-02-04T15:18:24.131Z,90784.36
2023-02-04T15:26:47.007Z,90784.11
2023-02-04T15:35:10.058Z,90764.23
2023-02-04T15:43:33.029Z,90759.98
2023-02-04T15:51:56.135Z,90754.57
2023-02-04T16:00:19.330Z,90729.38
2023-02-04T16:08:42.236Z,90712.23
2023-02-04T16:17:07.344Z,90711.26
2023-02-04T16:25:31.081Z,90705.36
2023-02-04T16:33:54.195Z,90685.48
2023-02-04T16:42:17.094Z,90676.16
2023-02-04T16:50:40.143Z,90668.33
2023-02-04T16:59:04.075Z,90649.23
2023-02-04T17:07:26.971Z,90650.61
2023-02-04T17:15:50.575Z,90675.96
2023-02-04T17:24:13.571Z,90669.69
2023-02-04T17:32:36.641Z,90658.19
2023-02-04T17:41:01.221Z,90645.17
2023-02-04T17:49:24.151Z,90634.81
2023-02-04T17:57:47.102Z,90642.23
2023-02-04T18:06:30.428Z,90650.42
2023-02-04T18:14:53.318Z,90638.47
2023-02-04T18:23:18.698Z,90608.73
2023-02-04T18:31:52.551Z,90611.33
2023-02-04T18:40:26.456Z,90616.02
2023-02-04T18:49:01.798Z,90606.25
2023-02-04T18:57:37.051Z,90580.09
2023-02-04T19:06:03.646Z,90565.32
2023-02-04T19:14:37.690Z,90589.66
2023-02-04T19:23:00.779Z,90579.84
2023-02-04T19:31:32.829Z,90540.92
2023-02-04T19:39:56.123Z,90515.23
2023-02-04T19:48:38.414Z,90498.86
2023-02-04T19:57:01.336Z,90514.98
2023-02-04T20:05:29.459Z,90519.27
2023-02-04T20:13:57.457Z,90509.11
2023-02-04T20:22:23.656Z,90490.84
2023-02-04T20:30:48.167Z,90473.20
2023-02-04T20:39:23.358Z,90494.02
2023-02-04T20:47:50.383Z,90505.58
2023-02-04T20:56:28.174Z,90488.95
2023-02-04T21:04:54.122Z,90473.83
2023-02-04T21:13:17.250Z,90482.56
2023-02-04T21:21:40.249Z,90459.38
2023-02-04T21:30:03.169Z,90410.77
2023-02-04T21:38:26.163Z,90370.21
2023-02-04T21:46:49.119Z,90332.89
2023-02-04T21:55:14.948Z,90302.08
2023-02-04T22:03:37.940Z,90309.91
2023-02-04T22:12:00.890Z,90351.03
2023-02-04T22:20:25.686Z,90384.92
2023-02-04T22:28:48.629Z,90399.35
2023-02-04T22:37:11.667Z,90424.31
2023-02-04T22:45:35.043Z,90440.60
2023-02-04T22:53:58.603Z,90405.02
2023-02-04T23:02:21.521Z,90358.48
2023-02-04T23:10:47.537Z,90307.97
2023-02-04T23:19:10.652Z,90241.27
2023-02-04T23:27:33.673Z,90178.16
2023-02-04T23:35:57.021Z,90154.53
2023-02-04T23:44:19.909Z,90134.25
2023-02-04T23:52:43.597Z,90105.88
